Time;durP1;ratioP1;P1;durP2;ratioP2;P2;SDS_P1;SDS_P2;PMS_P1;PMS_P2;Temp;Humidity;BMP_temperature;BMP_pressure;BME280_temperature;BME280_humidity;BME280_pressure;Samples;Min_cycle;Max_cycle;Signal;HPM_P1;HPM_P2
2022/01/09 00:01:46;;;;;;;1.20;1.00;;;5.20;98.00;;;;;;5030527;28;20463;-67
2022/01/09 00:04:13;;;;;;;1.20;1.00;;;5.20;98.00;;;;;;5031956;28;20524;-68
2022/01/09 00:06:40;;;;;;;1.10;1.00;;;5.20;98.00;;;;;;5031456;28;20516;-67
2022/01/09 00:09:07;;;;;;;1.10;0.97;;;5.20;98.00;;;;;;5031592;28;20538;-67
2022/01/09 00:11:34;;;;;;;1.20;1.00;;;5.10;98.00;;;;;;5031266;28;20560;-67
2022/01/09 00:14:01;;;;;;;1.10;1.00;;;5.10;98.00;;;;;;5031166;28;20461;-68
2022/01/09 00:16:28;;;;;;;1.10;0.90;;;5.10;98.00;;;;;;5031390;28;20490;-67
2022/01/09 00:18:57;;;;;;;1.43;1.10;;;5.20;98.00;;;;;;5031555;28;20513;-68
2022/01/09 00:21:24;;;;;;;1.10;1.00;;;5.20;98.00;;;;;;5030878;28;20520;-68
2022/01/09 00:23:51;;;;;;;1.10;1.00;;;5.30;98.00;;;;;;5031282;28;20486;-67
2022/01/09 00:26:19;;;;;;;1.10;0.90;;;5.30;98.00;;;;;;5031175;28;20530;-67
2022/01/09 00:28:46;;;;;;;1.20;1.00;;;5.20;98.00;;;;;;5030012;28;20511;-67
2022/01/09 00:31:13;;;;;;;1.10;0.90;;;5.20;98.00;;;;;;5030974;28;20486;-67
2022/01/09 00:33:40;;;;;;;1.13;1.00;;;5.30;98.00;;;;;;5031300;28;20487;-67
2022/01/09 00:36:08;;;;;;;1.20;1.00;;;5.30;98.00;;;;;;5030759;28;20998;-67
2022/01/09 00:38:35;;;;;;;1.20;1.00;;;5.30;98.00;;;;;;5031177;28;20546;-67
2022/01/09 00:41:02;;;;;;;1.10;1.00;;;5.30;98.00;;;;;;5030916;28;21040;-68
2022/01/09 00:43:30;;;;;;;1.20;1.00;;;5.30;98.00;;;;;;5031019;28;20487;-67
2022/01/09 00:45:59;;;;;;;1.10;1.00;;;5.40;98.00;;;;;;5030733;28;20471;-67
2022/01/09 00:48:25;;;;;;;1.10;1.00;;;5.40;98.00;;;;;;5031067;28;20467;-67
2022/01/09 00:50:52;;;;;;;1.10;0.90;;;5.40;98.00;;;;;;5030968;28;20550;-67
2022/01/09 00:53:21;;;;;;;1.10;0.90;;;5.40;98.00;;;;;;5030981;28;20512;-67
2022/01/09 00:55:48;;;;;;;1.20;1.00;;;5.40;98.00;;;;;;5033741;28;20841;-67
2022/01/09 00:58:18;;;;;;;1.10;1.00;;;5.40;98.00;;;;;;5034686;28;20511;-68
2022/01/09 01:00:45;;;;;;;1.10;1.00;;;5.50;98.00;;;;;;5033310;28;20860;-67
2022/01/09 01:03:12;;;;;;;1.10;1.00;;;5.50;98.00;;;;;;5033472;28;20454;-67
2022/01/09 01:05:40;;;;;;;1.10;1.00;;;5.50;98.00;;;;;;5034271;28;20491;-67
2022/01/09 01:08:07;;;;;;;1.13;1.00;;;5.50;98.00;;;;;;5034457;28;20963;-67
2022/01/09 01:10:36;;;;;;;1.20;1.10;;;5.50;98.00;;;;;;5034348;28;20494;-67
2022/01/09 01:13:04;;;;;;;1.20;1.10;;;5.50;98.00;;;;;;5034272;28;20519;-67
2022/01/09 01:15:33;;;;;;;1.10;1.00;;;5.50;98.00;;;;;;5034329;28;20461;-67
2022/01/09 01:18:01;;;;;;;1.20;1.10;;;5.50;98.00;;;;;;5034113;28;20817;-67
2022/01/09 01:20:30;;;;;;;1.20;1.00;;;5.50;98.00;;;;;;5034157;28;20462;-67
2022/01/09 01:22:58;;;;;;;1.20;1.00;;;5.50;98.00;;;;;;5034209;28;20459;-67
2022/01/09 01:25:28;;;;;;;1.17;1.00;;;5.50;98.00;;;;;;5034249;28;20517;-67
2022/01/09 01:27:57;;;;;;;1.10;0.97;;;5.50;98.00;;;;;;5034349;28;20562;-67
2022/01/09 01:30:24;;;;;;;1.13;1.00;;;5.50;98.00;;;;;;5032907;28;20459;-68
2022/01/09 01:32:51;;;;;;;1.20;1.20;;;5.50;98.00;;;;;;5033770;28;21018;-68
2022/01/09 01:35:17;;;;;;;1.10;1.00;;;5.50;98.00;;;;;;5034077;28;20558;-67
2022/01/09 01:37:47;;;;;;;1.17;0.90;;;5.50;98.00;;;;;;5033667;28;20503;-67
2022/01/09 01:40:18;;;;;;;1.20;1.00;;;5.60;98.00;;;;;;5032527;28;21039;-68
2022/01/09 01:42:46;;;;;;;1.20;1.00;;;5.60;98.00;;;;;;5033749;28;20543;-68
2022/01/09 01:45:15;;;;;;;1.13;1.00;;;5.60;98.00;;;;;;5033455;28;20492;-68
2022/01/09 01:47:42;;;;;;;1.10;1.00;;;5.60;98.00;;;;;;5033473;28;20525;-68
2022/01/09 01:50:13;;;;;;;1.20;0.90;;;5.60;98.00;;;;;;5033783;28;20533;-67
2022/01/09 01:52:43;;;;;;;1.20;1.00;;;5.60;98.00;;;;;;5033308;28;20494;-67
2022/01/09 01:55:12;;;;;;;1.20;1.00;;;5.60;98.00;;;;;;5033356;28;20969;-67
2022/01/09 01:57:41;;;;;;;1.10;1.00;;;5.60;98.00;;;;;;5033350;28;20880;-68
2022/01/09 02:00:11;;;;;;;1.20;1.00;;;5.60;98.00;;;;;;5033347;28;20971;-67
2022/01/09 02:02:39;;;;;;;1.20;1.00;;;5.60;98.00;;;;;;5033205;28;20548;-67
2022/01/09 02:05:11;;;;;;;1.20;1.00;;;5.60;98.00;;;;;;5033023;28;20491;-67
2022/01/09 02:07:38;;;;;;;1.10;1.00;;;5.70;98.00;;;;;;5032464;28;20473;-68
2022/01/09 02:10:08;;;;;;;1.20;1.00;;;5.60;98.00;;;;;;5033323;28;20546;-67
2022/01/09 02:12:37;;;;;;;1.10;1.00;;;5.60;98.00;;;;;;5033156;28;20493;-67
2022/01/09 02:15:30;;;;;;;1.20;1.00;;;5.60;98.00;;;;;;5033118;28;20494;-67
2022/01/09 02:17:59;;;;;;;2.70;2.50;;;5.70;98.00;;;;;;5033151;28;20475;-67
2022/01/09 02:20:27;;;;;;;1.20;1.00;;;5.70;98.00;;;;;;5033098;28;21017;-67
2022/01/09 02:22:54;;;;;;;1.13;1.00;;;5.60;98.00;;;;;;5032932;28;20492;-67
2022/01/09 02:25:26;;;;;;;1.10;0.90;;;5.60;98.00;;;;;;5032917;28;20515;-67
2022/01/09 02:27:53;;;;;;;1.20;0.90;;;5.70;98.00;;;;;;5033061;28;20486;-67
2022/01/09 02:30:21;;;;;;;1.17;1.00;;;5.70;98.00;;;;;;5032955;28;20464;-67
2022/01/09 02:32:48;;;;;;;1.20;1.00;;;5.70;98.00;;;;;;5032696;28;20526;-67
2022/01/09 02:35:15;;;;;;;1.20;0.90;;;5.80;98.00;;;;;;5032781;28;20488;-67
2022/01/09 02:37:43;;;;;;;1.20;0.97;;;5.90;98.00;;;;;;5032965;28;20500;-67
2022/01/09 02:40:11;;;;;;;1.30;1.00;;;5.90;98.00;;;;;;5032835;28;20492;-68
2022/01/09 02:42:38;;;;;;;1.20;0.90;;;5.90;98.00;;;;;;5032794;28;20511;-67
2022/01/09 02:45:06;;;;;;;1.20;0.90;;;5.90;98.00;;;;;;5032730;28;20460;-67
2022/01/09 02:47:34;;;;;;;1.20;1.00;;;5.80;98.00;;;;;;5032470;28;20611;-67
2022/01/09 02:50:10;;;;;;;1.10;0.90;;;5.90;98.00;;;;;;5032812;28;20544;-67
2022/01/09 02:52:49;;;;;;;1.20;1.00;;;5.90;98.00;;;;;;5032692;28;20483;-67
2022/01/09 02:55:18;;;;;;;1.10;0.90;;;6.00;98.00;;;;;;5031576;28;20456;-67
2022/01/09 02:57:46;;;;;;;1.20;1.00;;;6.00;98.00;;;;;;5032313;28;20464;-67
2022/01/09 03:00:15;;;;;;;1.20;1.00;;;6.00;98.00;;;;;;5032627;28;20538;-67
2022/01/09 03:02:42;;;;;;;1.20;1.00;;;6.00;98.00;;;;;;5032143;28;20447;-67
2022/01/09 03:05:10;;;;;;;1.20;1.00;;;6.00;98.00;;;;;;5032196;28;20534;-67
2022/01/09 03:07:38;;;;;;;1.20;1.00;;;6.10;98.00;;;;;;5032567;28;20462;-67
2022/01/09 03:10:06;;;;;;;1.20;0.90;;;6.00;98.00;;;;;;5032123;28;20515;-67
2022/01/09 03:12:34;;;;;;;1.20;0.90;;;6.10;98.00;;;;;;5031914;28;20540;-67
2022/01/09 03:15:03;;;;;;;1.20;1.00;;;6.00;98.00;;;;;;5031900;28;20539;-67
2022/01/09 03:17:30;;;;;;;1.20;0.90;;;6.00;98.00;;;;;;5031741;28;20470;-67
2022/01/09 03:19:59;;;;;;;1.20;1.00;;;6.00;98.00;;;;;;5031800;28;20519;-67
2022/01/09 03:22:26;;;;;;;1.13;0.90;;;6.10;98.00;;;;;;5031951;28;20478;-67
2022/01/09 03:24:53;;;;;;;1.20;1.00;;;6.10;98.00;;;;;;5031915;28;20504;-67
2022/01/09 03:27:21;;;;;;;1.20;1.00;;;6.20;98.00;;;;;;5030803;28;20487;-67
2022/01/09 03:29:49;;;;;;;1.20;1.00;;;6.20;98.00;;;;;;5030891;28;20521;-67
2022/01/09 03:32:16;;;;;;;1.17;0.90;;;6.30;98.00;;;;;;5031058;28;20546;-67
2022/01/09 03:34:43;;;;;;;1.17;0.97;;;6.30;98.00;;;;;;5031690;28;21056;-67
2022/01/09 03:37:10;;;;;;;1.20;1.00;;;6.30;98.00;;;;;;5031797;28;20868;-67
2022/01/09 03:39:37;;;;;;;1.20;0.90;;;6.30;98.00;;;;;;5031610;28;20519;-67
2022/01/09 03:42:05;;;;;;;1.17;0.90;;;6.40;98.00;;;;;;5030565;28;20466;-67
2022/01/09 03:44:32;;;;;;;1.20;1.00;;;6.40;98.00;;;;;;5031429;28;20487;-67
2022/01/09 03:47:00;;;;;;;1.20;1.00;;;6.40;98.00;;;;;;5031518;28;21034;-67
2022/01/09 03:49:28;;;;;;;1.10;0.90;;;6.40;98.00;;;;;;5031696;28;20493;-67
2022/01/09 03:51:56;;;;;;;1.13;0.90;;;6.40;98.00;;;;;;5031563;28;20834;-67
2022/01/09 03:54:23;;;;;;;1.20;0.90;;;6.40;98.00;;;;;;5031326;28;20489;-67
2022/01/09 03:56:51;;;;;;;1.20;1.00;;;6.50;98.00;;;;;;5031562;28;20533;-67
2022/01/09 03:59:18;;;;;;;1.20;0.90;;;6.50;98.00;;;;;;5031646;28;20462;-67
2022/01/09 04:01:46;;;;;;;1.17;0.90;;;6.50;98.00;;;;;;5031733;28;20537;-67
2022/01/09 04:04:15;;;;;;;1.10;0.90;;;6.40;98.00;;;;;;5031692;28;20988;-67
2022/01/09 04:06:46;;;;;;;1.20;0.90;;;6.40;98.00;;;;;;5031379;28;20490;-67
2022/01/09 04:09:19;;;;;;;1.10;1.00;;;6.40;98.00;;;;;;5031731;28;20595;-67
2022/01/09 04:11:46;;;;;;;1.10;0.90;;;6.40;98.00;;;;;;5031821;28;20457;-67
2022/01/09 04:14:14;;;;;;;1.20;1.00;;;6.40;98.00;;;;;;5030494;28;20555;-67
2022/01/09 04:16:41;;;;;;;1.17;0.90;;;6.40;98.00;;;;;;5031594;28;20464;-67
2022/01/09 04:19:13;;;;;;;1.20;1.00;;;6.30;98.00;;;;;;5031762;28;20546;-67
2022/01/09 04:21:43;;;;;;;1.20;1.00;;;6.40;98.00;;;;;;5031445;28;20540;-67
2022/01/09 04:24:10;;;;;;;1.20;0.90;;;6.40;98.00;;;;;;5031672;28;20511;-67
2022/01/09 04:26:37;;;;;;;1.20;1.00;;;6.40;98.00;;;;;;5031454;28;20463;-67
2022/01/09 04:29:05;;;;;;;1.20;0.90;;;6.40;98.00;;;;;;5031284;28;20501;-67
2022/01/09 04:31:32;;;;;;;1.17;1.00;;;6.40;98.00;;;;;;5035312;28;20487;-67
2022/01/09 04:34:00;;;;;;;1.10;1.00;;;6.40;98.00;;;;;;5034938;28;20538;-67
2022/01/09 04:36:27;;;;;;;1.30;1.10;;;6.30;98.00;;;;;;5033753;28;20497;-67
2022/01/09 04:38:56;;;;;;;1.20;1.00;;;6.20;98.00;;;;;;5034950;28;20461;-67
2022/01/09 04:41:23;;;;;;;1.17;1.00;;;6.20;98.00;;;;;;5034701;28;20990;-67
2022/01/09 04:43:50;;;;;;;1.17;0.90;;;6.20;98.00;;;;;;5034621;28;20551;-67
2022/01/09 04:46:23;;;;;;;1.20;1.00;;;6.10;98.00;;;;;;5034677;28;20467;-67
2022/01/09 04:48:53;;;;;;;1.17;1.00;;;6.10;98.00;;;;;;5034898;28;20506;-67
2022/01/09 04:51:20;;;;;;;1.20;0.90;;;6.00;98.00;;;;;;5034639;28;20516;-67
2022/01/09 04:53:47;;;;;;;1.10;0.90;;;6.00;98.00;;;;;;5033423;28;20513;-67
2022/01/09 04:56:16;;;;;;;1.10;0.90;;;6.00;98.00;;;;;;5034660;28;20967;-67
2022/01/09 04:58:43;;;;;;;1.10;0.90;;;6.00;98.00;;;;;;5034172;28;20491;-67
2022/01/09 05:01:10;;;;;;;1.10;0.90;;;5.90;98.00;;;;;;5033285;28;20503;-67
2022/01/09 05:03:37;;;;;;;1.10;1.00;;;5.90;98.00;;;;;;5034470;28;20962;-67
2022/01/09 05:06:04;;;;;;;1.10;0.90;;;5.80;98.00;;;;;;5034385;28;20518;-67
2022/01/09 05:08:32;;;;;;;1.10;0.97;;;5.70;98.00;;;;;;5034498;28;20455;-67
2022/01/09 05:10:59;;;;;;;1.10;1.00;;;5.60;98.00;;;;;;5034368;28;20490;-67
2022/01/09 05:13:27;;;;;;;1.10;0.90;;;5.50;98.00;;;;;;5034214;28;20540;-67
2022/01/09 05:15:55;;;;;;;1.10;1.00;;;5.50;98.00;;;;;;5034552;28;20508;-67
2022/01/09 05:18:22;;;;;;;1.10;1.00;;;5.50;98.00;;;;;;5034422;28;20538;-67
2022/01/09 05:20:49;;;;;;;1.10;0.90;;;5.40;98.00;;;;;;5034469;28;20513;-67
2022/01/09 05:23:16;;;;;;;1.10;1.00;;;5.30;98.00;;;;;;5033149;28;20482;-67
2022/01/09 05:25:43;;;;;;;1.10;1.00;;;5.30;98.00;;;;;;5034208;28;20454;-67
2022/01/09 05:28:10;;;;;;;1.10;1.00;;;5.30;98.00;;;;;;5034447;28;21022;-67
2022/01/09 05:30:38;;;;;;;1.10;0.90;;;5.10;98.00;;;;;;5034040;28;20455;-67
2022/01/09 05:33:05;;;;;;;1.10;0.90;;;5.10;98.00;;;;;;5033925;28;20892;-67
2022/01/09 05:35:32;;;;;;;1.10;0.90;;;5.10;98.00;;;;;;5033974;28;20526;-67
2022/01/09 05:37:59;;;;;;;1.10;1.00;;;5.10;98.00;;;;;;5033895;28;21038;-67
2022/01/09 05:40:26;;;;;;;1.10;1.00;;;5.00;98.00;;;;;;5033492;28;20499;-67
2022/01/09 05:42:54;;;;;;;1.10;0.90;;;5.00;98.00;;;;;;5033988;28;20459;-67
2022/01/09 05:45:21;;;;;;;1.10;1.00;;;4.90;98.00;;;;;;5033955;28;20466;-67
2022/01/09 05:47:50;;;;;;;1.10;1.00;;;4.80;98.00;;;;;;5033564;28;20498;-67
2022/01/09 05:50:17;;;;;;;1.10;1.00;;;4.80;98.00;;;;;;5033944;28;20508;-67
2022/01/09 05:52:44;;;;;;;1.10;1.00;;;4.70;98.00;;;;;;5033419;28;20491;-67
2022/01/09 05:55:11;;;;;;;1.10;0.90;;;4.70;98.00;;;;;;5033468;28;20552;-67
2022/01/09 05:57:38;;;;;;;1.10;1.00;;;4.70;98.00;;;;;;5033503;28;20560;-67
2022/01/09 06:00:06;;;;;;;1.10;0.90;;;4.70;98.00;;;;;;5032546;28;20994;-67
2022/01/09 06:02:33;;;;;;;1.10;0.90;;;4.70;98.00;;;;;;5033309;28;20493;-67
2022/01/09 06:05:02;;;;;;;1.10;0.90;;;4.70;98.00;;;;;;5033283;28;20538;-67
2022/01/09 06:07:29;;;;;;;1.10;1.00;;;4.60;98.00;;;;;;5033341;28;20549;-67
2022/01/09 06:09:56;;;;;;;1.10;0.90;;;4.50;98.00;;;;;;5033218;28;20574;-67
2022/01/09 06:12:23;;;;;;;1.10;0.90;;;4.50;98.00;;;;;;5033240;28;20532;-67
2022/01/09 06:14:51;;;;;;;1.10;0.90;;;4.50;98.00;;;;;;5032966;28;20518;-67
2022/01/09 06:17:18;;;;;;;1.10;0.90;;;4.50;98.00;;;;;;5033163;28;20462;-67
2022/01/09 06:19:45;;;;;;;1.10;0.90;;;4.40;98.00;;;;;;5033145;28;20873;-67
2022/01/09 06:22:17;;;;;;;1.10;0.90;;;4.40;98.00;;;;;;5032955;28;20466;-67
2022/01/09 06:24:45;;;;;;;1.10;1.00;;;4.40;98.00;;;;;;5033127;28;20477;-67
2022/01/09 06:27:12;;;;;;;1.10;0.90;;;4.40;98.00;;;;;;5033155;28;20455;-67
2022/01/09 06:29:39;;;;;;;1.10;0.90;;;4.40;98.00;;;;;;5032714;28;20553;-67
2022/01/09 06:32:07;;;;;;;1.10;0.97;;;4.40;98.00;;;;;;5032911;28;20463;-67
2022/01/09 06:34:34;;;;;;;1.10;1.00;;;4.30;98.00;;;;;;5032881;28;20573;-67
2022/01/09 06:37:01;;;;;;;1.10;1.00;;;4.30;98.00;;;;;;5032830;28;20494;-67
2022/01/09 06:39:29;;;;;;;1.10;0.90;;;4.30;98.00;;;;;;5032769;28;20844;-67
2022/01/09 06:41:59;;;;;;;1.10;0.90;;;4.20;98.00;;;;;;5032713;28;20494;-67
2022/01/09 06:44:26;;;;;;;1.10;0.90;;;4.20;98.00;;;;;;5032518;28;20941;-67
2022/01/09 06:46:54;;;;;;;1.10;0.90;;;4.10;98.00;;;;;;5032551;28;20509;-67
2022/01/09 06:49:21;;;;;;;1.10;1.00;;;4.20;98.00;;;;;;5032645;28;20497;-67
2022/01/09 06:51:48;;;;;;;1.10;1.00;;;4.10;98.00;;;;;;5031876;28;21011;-67
2022/01/09 06:54:15;;;;;;;1.10;0.90;;;4.10;98.00;;;;;;5032622;28;21004;-67
2022/01/09 06:56:44;;;;;;;1.10;1.00;;;4.10;98.00;;;;;;5032405;28;20846;-67
2022/01/09 06:59:11;;;;;;;1.10;0.90;;;4.10;98.00;;;;;;5032120;28;20539;-67
2022/01/09 07:01:38;;;;;;;1.10;0.90;;;4.00;98.00;;;;;;5032491;28;20498;-67
2022/01/09 07:04:05;;;;;;;1.10;1.00;;;4.00;98.00;;;;;;5032317;28;20552;-67
2022/01/09 07:06:32;;;;;;;1.10;1.00;;;4.10;98.00;;;;;;5032340;28;20517;-67
2022/01/09 07:09:00;;;;;;;1.10;1.00;;;4.00;98.00;;;;;;5032596;28;20466;-67
2022/01/09 07:11:27;;;;;;;1.10;0.90;;;4.00;98.00;;;;;;5032273;28;20976;-67
2022/01/09 07:13:55;;;;;;;1.10;0.90;;;3.90;98.00;;;;;;5032328;28;20878;-67
2022/01/09 07:16:22;;;;;;;1.10;0.90;;;3.90;98.00;;;;;;5032462;28;20450;-67
2022/01/09 07:18:49;;;;;;;1.10;0.90;;;3.90;98.00;;;;;;5031836;28;20539;-67
2022/01/09 07:21:16;;;;;;;1.10;1.00;;;3.90;98.00;;;;;;5031919;28;20463;-67
2022/01/09 07:23:43;;;;;;;1.10;1.00;;;3.90;98.00;;;;;;5032123;28;21093;-67
2022/01/09 07:26:10;;;;;;;1.10;0.90;;;3.80;98.00;;;;;;5031636;28;20523;-67
2022/01/09 07:28:39;;;;;;;1.10;0.90;;;3.80;98.00;;;;;;5031342;28;20498;-67
2022/01/09 07:31:07;;;;;;;1.10;0.90;;;3.80;98.00;;;;;;5030073;28;20496;-67
2022/01/09 07:33:34;;;;;;;1.10;0.90;;;3.80;98.00;;;;;;5031849;28;20466;-67
2022/01/09 07:36:01;;;;;;;1.10;0.97;;;3.70;98.00;;;;;;5031675;28;20458;-67
2022/01/09 07:38:28;;;;;;;1.10;1.00;;;3.60;98.00;;;;;;5031893;28;20949;-67
2022/01/09 07:40:55;;;;;;;1.10;0.90;;;3.60;98.00;;;;;;5031724;28;20467;-67
2022/01/09 07:43:22;;;;;;;1.10;1.00;;;3.60;98.00;;;;;;5031688;28;20509;-67
2022/01/09 07:45:49;;;;;;;1.10;0.93;;;3.60;98.00;;;;;;5031496;28;20787;-67
2022/01/09 07:48:21;;;;;;;1.10;0.90;;;3.60;98.00;;;;;;5031737;28;20486;-67
2022/01/09 07:50:48;;;;;;;1.10;1.00;;;3.60;98.00;;;;;;5031528;28;20478;-67
2022/01/09 07:53:18;;;;;;;1.10;0.90;;;3.60;98.00;;;;;;5030586;28;20913;-67
2022/01/09 07:55:45;;;;;;;1.10;0.90;;;3.60;98.00;;;;;;5031434;28;20478;-67
2022/01/09 07:58:12;;;;;;;1.10;0.90;;;3.60;98.00;;;;;;5031175;28;20491;-67
2022/01/09 08:00:39;;;;;;;1.10;1.00;;;3.60;98.00;;;;;;5031421;28;20506;-67
2022/01/09 08:03:08;;;;;;;1.10;0.90;;;3.70;98.00;;;;;;5031998;28;20552;-67
2022/01/09 08:05:36;;;;;;;1.77;1.17;;;3.70;98.00;;;;;;5035476;28;20454;-66
2022/01/09 08:08:03;;;;;;;1.10;1.07;;;3.80;98.00;;;;;;5035641;28;20454;-67
2022/01/09 08:10:31;;;;;;;1.10;1.00;;;3.80;98.00;;;;;;5035463;28;20498;-67
2022/01/09 08:12:59;;;;;;;1.10;0.90;;;3.90;98.00;;;;;;5035632;28;20483;-68
2022/01/09 08:15:26;;;;;;;1.10;1.00;;;3.90;98.00;;;;;;5035550;28;20497;-68
2022/01/09 08:17:54;;;;;;;1.10;1.03;;;3.90;98.00;;;;;;5035417;28;21160;-68
2022/01/09 08:20:21;;;;;;;1.10;0.90;;;3.90;98.00;;;;;;5035519;28;20853;-68
2022/01/09 08:22:50;;;;;;;1.10;0.90;;;3.90;98.00;;;;;;5034922;28;20552;-67
2022/01/09 08:25:19;;;;;;;1.10;0.90;;;4.00;98.00;;;;;;5035427;28;20494;-67
2022/01/09 08:27:48;;;;;;;1.10;0.90;;;4.00;98.00;;;;;;5034840;28;20842;-67
2022/01/09 08:30:16;;;;;;;1.10;0.90;;;4.00;98.00;;;;;;5033337;28;20462;-67
2022/01/09 08:32:43;;;;;;;1.10;1.00;;;4.10;98.00;;;;;;5034485;28;20923;-68
2022/01/09 08:35:13;;;;;;;1.10;1.00;;;4.20;98.00;;;;;;5034479;28;20518;-68
2022/01/09 08:37:42;;;;;;;1.10;0.90;;;4.20;98.00;;;;;;5033976;28;20498;-67
2022/01/09 08:40:11;;;;;;;1.10;1.00;;;4.30;98.00;;;;;;5034768;28;20972;-68
2022/01/09 08:42:40;;;;;;;1.10;0.93;;;4.30;98.00;;;;;;5035192;28;20513;-68
2022/01/09 08:45:08;;;;;;;1.10;0.90;;;4.30;98.00;;;;;;5034508;28;20493;-68
2022/01/09 08:47:37;;;;;;;1.20;1.07;;;4.40;98.00;;;;;;5034533;28;20826;-68
2022/01/09 08:50:06;;;;;;;1.10;0.90;;;4.50;98.00;;;;;;5034868;28;20855;-68
2022/01/09 08:52:33;;;;;;;1.10;1.00;;;4.50;98.00;;;;;;5034755;28;20822;-68
2022/01/09 08:55:04;;;;;;;1.10;1.00;;;4.50;98.00;;;;;;5034344;28;20521;-68
2022/01/09 08:57:33;;;;;;;1.10;0.90;;;4.50;98.00;;;;;;5034452;28;20494;-68
2022/01/09 09:00:00;;;;;;;1.10;0.90;;;4.60;98.00;;;;;;5034635;28;20497;-68
2022/01/09 09:02:27;;;;;;;1.10;1.00;;;4.60;98.00;;;;;;5033877;28;20888;-68
2022/01/09 09:04:53;;;;;;;1.20;1.10;;;4.60;98.00;;;;;;5034387;28;20980;-67
2022/01/09 09:07:24;;;;;;;1.10;0.90;;;4.70;98.00;;;;;;5034446;28;20501;-68
2022/01/09 09:09:51;;;;;;;1.10;1.00;;;4.70;98.00;;;;;;5034618;28;20454;-68
2022/01/09 09:12:19;;;;;;;1.10;1.00;;;4.70;98.00;;;;;;5034188;28;20463;-68
2022/01/09 09:14:48;;;;;;;1.10;1.00;;;4.80;98.00;;;;;;5033649;28;20518;-68
2022/01/09 09:17:16;;;;;;;1.20;1.10;;;4.80;98.00;;;;;;5034125;28;20478;-68
2022/01/09 09:19:43;;;;;;;1.10;0.90;;;4.90;98.00;;;;;;5034281;28;20458;-68
2022/01/09 09:22:10;;;;;;;1.10;1.00;;;4.90;98.00;;;;;;5034020;28;20516;-68
2022/01/09 09:24:40;;;;;;;1.10;1.00;;;4.90;98.00;;;;;;5032887;28;20491;-68
2022/01/09 09:27:07;;;;;;;1.10;1.00;;;4.90;98.00;;;;;;5032771;28;20454;-68
2022/01/09 09:29:41;;;;;;;1.10;1.00;;;5.00;98.00;;;;;;5033778;28;20957;-68
2022/01/09 09:32:10;;;;;;;1.10;1.00;;;5.10;98.00;;;;;;5032157;28;20550;-68
2022/01/09 09:34:39;;;;;;;1.10;0.90;;;5.20;98.00;;;;;;5033738;28;20508;-68
2022/01/09 09:37:06;;;;;;;1.10;1.00;;;5.20;98.00;;;;;;5034063;28;20517;-68
2022/01/09 09:39:34;;;;;;;1.20;1.00;;;5.20;98.00;;;;;;5033908;28;20491;-70
2022/01/09 09:42:01;;;;;;;1.20;1.10;;;5.20;98.00;;;;;;5033774;28;20499;-68
2022/01/09 09:44:29;;;;;;;1.10;1.00;;;5.20;98.00;;;;;;5023263;28;20539;-68
2022/01/09 09:46:56;;;;;;;1.10;1.00;;;5.20;98.00;;;;;;5013764;28;20470;-68
2022/01/09 09:49:25;;;;;;;1.20;1.00;;;5.30;98.00;;;;;;5014024;28;20867;-68
2022/01/09 09:51:52;;;;;;;1.10;1.00;;;5.30;98.00;;;;;;5014399;28;20468;-69
2022/01/09 09:54:19;;;;;;;1.10;1.00;;;5.30;98.00;;;;;;5017310;28;20483;-69
2022/01/09 09:56:46;;;;;;;1.20;1.00;;;5.20;98.00;;;;;;5032497;28;20498;-68
2022/01/09 09:59:13;;;;;;;1.10;1.00;;;5.10;98.00;;;;;;5033601;28;20977;-68
2022/01/09 10:01:41;;;;;;;1.10;1.00;;;5.20;98.00;;;;;;5033456;28;20547;-69
2022/01/09 10:04:09;;;;;;;1.10;1.00;;;5.10;98.00;;;;;;5033765;28;20518;-68
2022/01/09 10:06:43;;;;;;;1.10;0.93;;;5.10;98.00;;;;;;5033186;28;20462;-69
2022/01/09 10:09:13;;;;;;;1.10;1.00;;;5.10;98.00;;;;;;5033478;28;20485;-69
2022/01/09 10:11:45;;;;;;;1.10;1.00;;;5.00;98.00;;;;;;5032963;28;20455;-68
2022/01/09 10:14:16;;;;;;;1.10;0.90;;;5.00;98.00;;;;;;5033007;28;20458;-69
2022/01/09 10:17:05;;;;;;;1.10;1.00;;;5.10;98.00;;;;;;5033069;28;20504;-69
2022/01/09 10:19:41;;;;;;;1.10;1.00;;;5.20;98.00;;;;;;5033220;28;20874;-69
2022/01/09 10:22:26;;;;;;;1.10;0.90;;;5.20;98.00;;;;;;5032912;28;20455;-65
2022/01/09 10:24:55;;;;;;;1.10;1.00;;;5.30;98.00;;;;;;5033063;28;20447;-69
2022/01/09 10:27:33;;;;;;;1.10;0.90;;;5.20;98.00;;;;;;5031717;28;20467;-69
2022/01/09 10:30:02;;;;;;;1.10;1.00;;;5.20;98.00;;;;;;5031447;28;21006;-69
2022/01/09 10:32:30;;;;;;;1.10;1.00;;;5.20;98.00;;;;;;5032428;28;20524;-69
2022/01/09 10:35:12;;;;;;;1.20;1.00;;;5.30;98.00;;;;;;5032824;28;20524;-69
2022/01/09 10:37:43;;;;;;;1.20;1.00;;;5.40;98.00;;;;;;5032567;28;20463;-69
2022/01/09 10:40:12;;;;;;;1.17;1.00;;;5.40;98.00;;;;;;5032649;28;20486;-69
2022/01/09 10:42:40;;;;;;;1.13;0.93;;;5.40;98.00;;;;;;5032812;28;20470;-69
2022/01/09 10:45:20;;;;;;;1.20;1.00;;;5.30;98.00;;;;;;5032547;28;20512;-69
2022/01/09 10:48:04;;;;;;;1.10;1.00;;;5.30;98.00;;;;;;5150886;27;20535;-67
2022/01/09 10:50:34;;;;;;;1.20;1.00;;;5.40;98.00;;;;;;5114247;28;20454;-69
2022/01/09 10:53:20;;;;;;;1.20;1.00;;;5.40;98.00;;;;;;5125766;28;20458;-70
2022/01/09 10:56:00;;;;;;;1.20;1.00;;;5.40;98.00;;;;;;5105331;28;20458;-70
2022/01/09 10:58:28;;;;;;;1.20;1.00;;;5.30;98.00;;;;;;5115863;28;20451;-69
2022/01/09 11:01:20;;;;;;;1.20;1.00;;;5.20;98.00;;;;;;5107342;28;20453;-70
2022/01/09 11:03:51;;;;;;;1.10;1.00;;;5.10;98.00;;;;;;5117246;28;20455;-70
2022/01/09 11:06:19;;;;;;;1.10;0.90;;;5.10;98.00;;;;;;5111169;28;20548;-70
2022/01/09 11:08:47;;;;;;;1.10;1.00;;;5.10;98.00;;;;;;5124809;28;20478;-70
2022/01/09 11:11:27;;;;;;;1.10;0.97;;;5.10;98.00;;;;;;5122756;27;21832;-69
2022/01/09 11:14:00;;;;;;;1.10;1.00;;;5.00;98.00;;;;;;5113169;28;20462;-69
2022/01/09 11:16:34;;;;;;;1.10;1.00;;;5.00;98.00;;;;;;5124278;27;20583;-69
2022/01/09 11:19:08;;;;;;;1.30;1.03;;;5.00;98.00;;;;;;5110020;27;21078;-70
2022/01/09 11:21:35;;;;;;;1.10;1.00;;;5.00;98.00;;;;;;5107739;28;20552;-69
2022/01/09 11:24:48;;;;;;;1.10;0.97;;;5.00;98.00;;;;;;5115153;28;20450;-69
2022/01/09 11:27:24;;;;;;;1.20;1.10;;;5.10;98.00;;;;;;5088077;28;20534;-70
2022/01/09 11:30:03;;;;;;;1.20;1.10;;;5.10;98.00;;;;;;5116885;28;20447;-69
2022/01/09 11:32:43;;;;;;;1.10;0.97;;;5.30;98.00;;;;;;5112822;28;20556;-69
2022/01/09 11:35:21;;;;;;;1.20;1.20;;;5.40;98.00;;;;;;5123688;28;20954;-69
2022/01/09 11:38:00;;;;;;;1.10;0.90;;;5.50;98.00;;;;;;5107347;28;20452;-69
2022/01/09 11:40:29;;;;;;;1.10;1.00;;;5.50;98.00;;;;;;5115965;28;20480;-70
2022/01/09 11:43:04;;;;;;;1.10;0.90;;;5.70;98.00;;;;;;5116249;28;20487;-69
2022/01/09 11:45:45;;;;;;;1.13;1.00;;;5.60;98.00;;;;;;5108689;28;20454;-70
2022/01/09 11:48:14;;;;;;;1.10;1.00;;;5.70;98.00;;;;;;5123752;28;20492;-70
2022/01/09 11:51:14;;;;;;;1.10;1.00;;;5.80;98.00;;;;;;5105216;28;20463;-71
2022/01/09 11:54:05;;;;;;;1.10;1.00;;;5.80;98.00;;;;;;5042263;28;20450;-70
2022/01/09 11:56:54;;;;;;;1.10;1.00;;;5.60;98.00;;;;;;5096374;28;20557;-70
2022/01/09 11:59:27;;;;;;;1.10;1.00;;;5.70;98.00;;;;;;5104292;28;20463;-71
2022/01/09 12:01:56;;;;;;;1.10;1.00;;;5.80;98.00;;;;;;5097759;28;20457;-70
2022/01/09 12:04:52;;;;;;;1.83;1.27;;;5.80;98.00;;;;;;5096885;28;20483;-71
2022/01/09 12:07:36;;;;;;;1.20;1.00;;;5.70;98.00;;;;;;5110473;28;20488;-70
2022/01/09 12:10:24;;;;;;;1.20;1.00;;;5.60;98.00;;;;;;5101067;28;20481;-69
2022/01/09 12:12:52;;;;;;;1.20;1.00;;;5.60;98.00;;;;;;5088351;28;20466;-70
2022/01/09 12:15:34;;;;;;;1.30;1.10;;;5.60;98.00;;;;;;5110378;28;20519;-69
2022/01/09 12:18:03;;;;;;;1.10;1.10;;;5.70;98.00;;;;;;5097923;28;20497;-70
2022/01/09 12:20:37;;;;;;;3.00;1.87;;;5.70;98.00;;;;;;5093134;28;20907;-70
2022/01/09 12:23:05;;;;;;;1.10;1.00;;;5.80;98.00;;;;;;5101969;28;20515;-70
2022/01/09 12:25:55;;;;;;;1.20;1.00;;;6.10;98.00;;;;;;5093084;28;20534;-69
2022/01/09 12:28:51;;;;;;;1.20;1.00;;;6.30;98.00;;;;;;5093540;28;20536;-69
2022/01/09 12:31:27;;;;;;;1.20;1.00;;;6.50;98.00;;;;;;5095845;28;20480;-70
2022/01/09 12:34:00;;;;;;;1.20;1.00;;;6.60;98.00;;;;;;5109976;28;20547;-68
2022/01/09 12:36:32;;;;;;;1.20;1.00;;;6.60;98.00;;;;;;5107799;28;20522;-70
2022/01/09 12:39:03;;;;;;;1.20;1.00;;;6.40;98.00;;;;;;5093193;28;20521;-71
2022/01/09 12:41:36;;;;;;;1.20;1.00;;;6.40;98.00;;;;;;5097063;28;20463;-69
2022/01/09 12:44:08;;;;;;;1.20;0.90;;;6.10;98.00;;;;;;5105951;28;20452;-70
2022/01/09 12:46:41;;;;;;;1.20;1.00;;;5.90;98.00;;;;;;5098159;28;20475;-70
2022/01/09 12:49:12;;;;;;;1.20;1.00;;;5.80;98.00;;;;;;5107342;28;20453;-69
2022/01/09 12:51:47;;;;;;;1.20;1.00;;;5.80;98.00;;;;;;5100553;28;20522;-70
2022/01/09 12:54:14;;;;;;;1.70;1.13;;;5.70;98.00;;;;;;5100010;28;20817;-68
2022/01/09 12:56:42;;;;;;;2.07;1.40;;;5.70;98.00;;;;;;5100894;28;20493;-69
2022/01/09 12:59:12;;;;;;;1.20;1.00;;;5.70;98.00;;;;;;5101647;28;20536;-71
2022/01/09 13:01:41;;;;;;;1.20;1.00;;;5.80;98.00;;;;;;5101033;28;20487;-69
2022/01/09 13:04:11;;;;;;;1.20;1.00;;;6.00;98.00;;;;;;5092670;28;20558;-69
2022/01/09 13:06:40;;;;;;;1.20;1.00;;;6.00;98.00;;;;;;5091882;28;21059;-68
2022/01/09 13:09:14;;;;;;;1.20;1.00;;;6.00;98.00;;;;;;5108452;28;20451;-69
2022/01/09 13:11:44;;;;;;;1.20;1.00;;;6.10;98.00;;;;;;5100979;28;21017;-69